createdAt,value
2019-03-27T00:00:18.905Z,-1.07
2019-03-27T00:02:49.546Z,-1.10
2019-03-27T00:05:20.093Z,-1.24
2019-03-27T00:07:50.946Z,-1.28
2019-03-27T00:10:21.291Z,-1.33
2019-03-27T00:12:51.672Z,-1.34
2019-03-27T00:15:22.576Z,-1.30
2019-03-27T00:17:53.140Z,-1.31
2019-03-27T00:20:23.683Z,-1.38
2019-03-27T00:22:57.793Z,-1.47
2019-03-27T00:25:28.357Z,-1.58
2019-03-27T00:27:58.902Z,-1.62
2019-03-27T00:30:29.607Z,-1.53
2019-03-27T00:33:02.502Z,-1.55
2019-03-27T00:35:34.328Z,-1.61
2019-03-27T00:38:05.091Z,-1.70
2019-03-27T00:40:35.780Z,-1.70
2019-03-27T00:43:06.509Z,-1.75
2019-03-27T00:45:37.806Z,-1.75
2019-03-27T00:48:08.535Z,-1.80
2019-03-27T00:50:39.029Z,-1.83
2019-03-27T00:53:09.447Z,-1.93
2019-03-27T00:55:40.180Z,-2.04
2019-03-27T00:58:10.876Z,-2.04
2019-03-27T01:00:44.746Z,-2.10
2019-03-27T01:03:15.421Z,-2.04
2019-03-27T01:05:45.966Z,-2.07
2019-03-27T01:08:16.908Z,-2.11
2019-03-27T01:10:47.602Z,-2.03
2019-03-27T01:13:18.166Z,-2.14
2019-03-27T01:15:48.840Z,-2.15
2019-03-27T01:18:19.285Z,-2.14
2019-03-27T01:20:49.726Z,-2.25
2019-03-27T01:23:20.295Z,-2.29
2019-03-27T01:25:51.137Z,-2.19
2019-03-27T01:28:21.698Z,-2.32
2019-03-27T01:30:52.579Z,-2.41
2019-03-27T01:33:23.378Z,-2.38
2019-03-27T01:35:53.721Z,-2.38
2019-03-27T01:38:24.363Z,-2.44
2019-03-27T01:40:54.991Z,-2.47
2019-03-27T01:43:25.615Z,-2.49
2019-03-27T01:45:56.849Z,-2.54
2019-03-27T01:48:27.491Z,-2.62
2019-03-27T01:50:58.213Z,-2.70
2019-03-27T01:53:29.740Z,-2.73
2019-03-27T01:56:00.214Z,-2.70
2019-03-27T01:58:30.821Z,-2.74
2019-03-27T02:01:01.445Z,-2.78
2019-03-27T02:03:32.439Z,-2.88
2019-03-27T02:06:02.999Z,-2.77
2019-03-27T02:08:33.391Z,-2.73
2019-03-27T02:11:03.868Z,-2.72
2019-03-27T02:13:34.696Z,-2.89
2019-03-27T02:16:07.364Z,-2.96
2019-03-27T02:18:38.275Z,-2.93
2019-03-27T02:21:09.161Z,-3.01
2019-03-27T02:23:39.678Z,-3.15
2019-03-27T02:26:11.410Z,-3.14
2019-03-27T02:28:42.125Z,-3.24
2019-03-27T02:31:12.820Z,-3.29
2019-03-27T02:33:43.321Z,-3.25
2019-03-27T02:36:13.722Z,-3.26
2019-03-27T02:38:44.444Z,-3.20
2019-03-27T02:41:14.975Z,-3.11
2019-03-27T02:43:46.115Z,-3.07
2019-03-27T02:46:24.329Z,-2.99
2019-03-27T02:48:49.958Z,-3.14
2019-03-27T02:51:20.575Z,-3.16
2019-03-27T02:53:51.612Z,-3.16
2019-03-27T02:56:21.939Z,-3.19
2019-03-27T02:58:52.387Z,-3.25
2019-03-27T03:01:22.800Z,-3.27
2019-03-27T03:03:53.286Z,-3.29
2019-03-27T03:06:24.075Z,-3.21
2019-03-27T03:08:55.512Z,-3.24
2019-03-27T03:11:25.879Z,-3.24
2019-03-27T03:13:56.365Z,-3.29
2019-03-27T03:16:41.214Z,-3.36
2019-03-27T03:18:59.046Z,-3.42
2019-03-27T03:21:29.540Z,-3.31
2019-03-27T03:24:00.031Z,-3.26
2019-03-27T03:26:30.901Z,-3.15
2019-03-27T03:29:01.499Z,-3.24
2019-03-27T03:31:31.977Z,-3.35
2019-03-27T03:34:02.650Z,-3.44
2019-03-27T03:36:34.060Z,-3.52
2019-03-27T03:39:06.136Z,-3.60
2019-03-27T03:41:36.593Z,-3.61
2019-03-27T03:44:07.288Z,-3.60
2019-03-27T03:46:38.634Z,-3.60
2019-03-27T03:49:10.168Z,-3.48
2019-03-27T03:51:40.794Z,-3.56
2019-03-27T03:54:11.789Z,-3.62
2019-03-27T03:56:42.241Z,-3.73
2019-03-27T03:59:12.944Z,-3.81
2019-03-27T04:01:44.156Z,-3.93
2019-03-27T04:04:14.892Z,-3.96
2019-03-27T04:06:45.300Z,-4.01
2019-03-27T04:09:15.885Z,-4.01
2019-03-27T04:11:46.695Z,-3.98
2019-03-27T04:14:18.317Z,-4.07
2019-03-27T04:16:48.720Z,-3.99
2019-03-27T04:19:19.613Z,-4.02
2019-03-27T04:21:50.179Z,-4.09
2019-03-27T04:24:20.527Z,-4.13
2019-03-27T04:26:51.347Z,-4.14
2019-03-27T04:29:22.226Z,-4.12
2019-03-27T04:31:52.731Z,-4.11
2019-03-27T04:34:23.275Z,-4.04
2019-03-27T04:36:53.859Z,-4.04
2019-03-27T04:39:24.746Z,-3.98
2019-03-27T04:41:55.184Z,-3.97
2019-03-27T04:44:25.895Z,-3.84
2019-03-27T04:46:56.568Z,-3.77
2019-03-27T04:49:27.243Z,-3.79
2019-03-27T04:51:57.807Z,-3.87
2019-03-27T04:54:28.643Z,-3.92
2019-03-27T04:56:59.052Z,-3.91
2019-03-27T04:59:29.498Z,-3.94
2019-03-27T05:01:59.862Z,-3.92
2019-03-27T05:04:30.631Z,-3.88
2019-03-27T05:07:01.087Z,-3.85
2019-03-27T05:09:31.909Z,-3.74
2019-03-27T05:12:02.494Z,-3.69
2019-03-27T05:14:32.999Z,-3.61
2019-03-27T05:17:03.585Z,-3.62
2019-03-27T05:19:34.098Z,-3.59
2019-03-27T05:22:04.787Z,-3.50
2019-03-27T05:24:35.407Z,-3.50
2019-03-27T05:27:06.023Z,-3.47
2019-03-27T05:29:36.999Z,-3.41
2019-03-27T05:32:07.610Z,-3.35
2019-03-27T05:34:38.233Z,-3.15
2019-03-27T05:37:08.972Z,-2.85
2019-03-27T05:39:39.659Z,-2.73
2019-03-27T05:42:10.267Z,-2.77
2019-03-27T05:44:41.385Z,-2.68
2019-03-27T05:47:12.180Z,-2.64
2019-03-27T05:49:42.795Z,-2.60
2019-03-27T05:52:17.318Z,-2.51
2019-03-27T05:54:47.637Z,-2.42
2019-03-27T05:57:18.075Z,-2.28
2019-03-27T05:59:48.738Z,-2.15
2019-03-27T06:02:19.650Z,-2.00
2019-03-27T06:04:50.397Z,-1.86
2019-03-27T06:07:20.949Z,-1.74
2019-03-27T06:09:51.749Z,-1.60
2019-03-27T06:12:22.435Z,-1.39
2019-03-27T06:14:54.324Z,-1.19
2019-03-27T06:17:24.823Z,-0.97
2019-03-27T06:19:55.382Z,-0.76
2019-03-27T06:22:26.295Z,-0.54
2019-03-27T06:24:56.741Z,-0.40
2019-03-27T06:27:27.488Z,-0.29
2019-03-27T06:29:58.424Z,-0.27
2019-03-27T06:32:28.849Z,-0.20
2019-03-27T06:34:59.297Z,-0.02
2019-03-27T06:37:29.747Z,-0.05
2019-03-27T06:40:00.487Z,0.19
2019-03-27T06:42:30.811Z,0.29
2019-03-27T06:45:01.547Z,0.32
2019-03-27T06:47:32.237Z,0.33
2019-03-27T06:50:02.859Z,0.40
2019-03-27T06:52:33.563Z,0.50
2019-03-27T06:55:06.001Z,0.71
2019-03-27T06:57:36.960Z,0.84
2019-03-27T07:00:09.404Z,0.96
2019-03-27T07:02:40.236Z,1.02
2019-03-27T07:05:10.718Z,1.42
2019-03-27T07:07:41.492Z,1.66
2019-03-27T07:10:12.386Z,5.16
2019-03-27T07:12:43.217Z,7.65
2019-03-27T07:15:13.818Z,9.40
2019-03-27T07:17:44.579Z,9.85
2019-03-27T07:20:15.291Z,10.63
2019-03-27T07:22:46.223Z,12.01
2019-03-27T07:25:16.730Z,11.39
2019-03-27T07:27:47.178Z,12.42
2019-03-27T07:30:18.175Z,12.53
2019-03-27T07:32:48.947Z,12.41
2019-03-27T07:35:19.894Z,13.53
2019-03-27T07:37:50.522Z,14.13
2019-03-27T07:40:21.094Z,13.82
2019-03-27T07:42:51.796Z,14.82
2019-03-27T07:45:22.346Z,14.65
2019-03-27T07:47:53.801Z,14.34
2019-03-27T07:50:24.423Z,13.65
2019-03-27T07:52:55.180Z,14.67
2019-03-27T07:55:25.794Z,14.19
2019-03-27T07:57:56.814Z,14.80
2019-03-27T08:00:27.574Z,15.42
2019-03-27T08:02:58.429Z,15.63
2019-03-27T08:05:29.014Z,15.02
2019-03-27T08:07:59.629Z,14.84
2019-03-27T08:10:30.539Z,15.27
2019-03-27T08:13:01.376Z,14.16
2019-03-27T08:15:31.782Z,14.41
2019-03-27T08:18:02.556Z,14.21
2019-03-27T08:20:33.169Z,14.69
2019-03-27T08:23:03.751Z,15.49
2019-03-27T08:25:34.877Z,14.89
2019-03-27T08:28:06.344Z,14.92
2019-03-27T08:30:38.242Z,15.74
2019-03-27T08:33:09.934Z,15.08
2019-03-27T08:35:41.310Z,15.59
2019-03-27T08:38:15.084Z,15.05
2019-03-27T08:40:47.212Z,16.14
2019-03-27T08:43:21.425Z,16.27
2019-03-27T08:45:52.407Z,16.38
2019-03-27T08:48:27.639Z,14.68
2019-03-27T08:51:00.602Z,16.29
2019-03-27T08:53:33.454Z,16.69
2019-03-27T08:56:05.923Z,15.99
2019-03-27T08:58:39.192Z,16.19
2019-03-27T09:01:10.422Z,15.65
2019-03-27T09:03:43.981Z,15.52
2019-03-27T09:06:15.161Z,16.96
2019-03-27T09:08:46.940Z,16.33
2019-03-27T09:11:19.867Z,17.40
2019-03-27T09:13:51.045Z,17.09
2019-03-27T09:16:22.070Z,15.53
2019-03-27T09:18:53.816Z,15.80
2019-03-27T09:21:26.277Z,15.46
2019-03-27T09:23:57.289Z,17.35
2019-03-27T09:26:28.153Z,15.34
2019-03-27T09:28:58.579Z,16.12
2019-03-27T09:31:29.510Z,15.42
2019-03-27T09:34:00.281Z,15.81
2019-03-27T09:36:31.001Z,16.48
2019-03-27T09:39:01.629Z,16.95
2019-03-27T09:41:32.993Z,16.36
2019-03-27T09:44:03.448Z,17.07
2019-03-27T09:46:34.050Z,16.96
2019-03-27T09:49:05.678Z,15.95
2019-03-27T09:51:37.255Z,17.44
2019-03-27T09:54:09.090Z,16.94
2019-03-27T09:56:40.847Z,17.40
2019-03-27T09:59:11.968Z,17.81
2019-03-27T10:01:42.988Z,15.88
2019-03-27T10:04:14.226Z,18.22
2019-03-27T10:06:46.611Z,16.74
2019-03-27T10:09:17.182Z,17.58
2019-03-27T10:11:48.129Z,17.70
2019-03-27T10:14:18.750Z,17.61
2019-03-27T10:16:49.303Z,15.04
2019-03-27T10:19:19.649Z,16.12
2019-03-27T10:21:50.310Z,14.42
2019-03-27T10:24:20.868Z,13.64
2019-03-27T10:26:51.727Z,14.09
2019-03-27T10:29:23.901Z,14.08
2019-03-27T10:31:56.080Z,13.98
2019-03-27T10:34:27.103Z,15.18
2019-03-27T10:36:57.797Z,15.98
2019-03-27T10:39:29.015Z,16.02
2019-03-27T10:41:59.550Z,16.47
2019-03-27T10:44:30.558Z,17.42
2019-03-27T10:47:03.457Z,16.66
2019-03-27T10:49:36.679Z,16.01
2019-03-27T10:52:07.215Z,16.85
2019-03-27T10:54:37.849Z,17.11
2019-03-27T10:57:08.575Z,17.38
2019-03-27T10:59:41.116Z,17.90
2019-03-27T11:02:11.840Z,17.79
2019-03-27T11:04:42.788Z,15.20
2019-03-27T11:07:13.719Z,14.33
2019-03-27T11:09:44.833Z,14.11
2019-03-27T11:12:15.491Z,15.86
2019-03-27T11:14:46.391Z,16.71
2019-03-27T11:17:17.342Z,16.99
2019-03-27T11:19:48.532Z,15.87
2019-03-27T11:22:19.050Z,14.45
2019-03-27T11:24:49.816Z,13.18
2019-03-27T11:27:21.340Z,12.56
2019-03-27T11:29:52.817Z,11.99
2019-03-27T11:32:24.764Z,12.77
2019-03-27T11:34:56.302Z,14.26
2019-03-27T11:37:26.918Z,15.13
2019-03-27T11:39:57.526Z,14.92
2019-03-27T11:42:29.249Z,14.10
2019-03-27T11:45:00.497Z,13.10
2019-03-27T11:47:31.465Z,14.42
2019-03-27T11:50:02.068Z,13.32
2019-03-27T11:52:33.915Z,13.46
2019-03-27T11:55:05.349Z,13.45
2019-03-27T11:57:36.094Z,13.45
2019-03-27T12:00:09.948Z,12.02
2019-03-27T12:02:40.440Z,12.02
2019-03-27T12:05:11.010Z,11.95
2019-03-27T12:07:42.004Z,11.61
2019-03-27T12:10:13.100Z,11.63
2019-03-27T12:12:48.247Z,11.09
2019-03-27T12:15:21.940Z,11.25
2019-03-27T12:17:53.040Z,11.74
2019-03-27T12:20:23.536Z,11.72
2019-03-27T12:22:57.830Z,11.83
2019-03-27T12:25:27.072Z,11.56
2019-03-27T12:27:58.333Z,10.73
2019-03-27T12:30:29.202Z,10.68
2019-03-27T12:33:00.194Z,10.69
2019-03-27T12:35:30.829Z,10.94
2019-03-27T12:38:04.282Z,11.04
2019-03-27T12:40:34.509Z,11.02
2019-03-27T12:43:05.879Z,10.81
2019-03-27T12:45:36.706Z,10.31
2019-03-27T12:48:07.844Z,10.36
2019-03-27T12:50:39.343Z,10.35
2019-03-27T12:53:09.689Z,10.41
2019-03-27T12:55:40.921Z,10.49
2019-03-27T12:58:12.031Z,10.36
2019-03-27T13:00:43.785Z,10.31
2019-03-27T13:03:14.697Z,10.07
2019-03-27T13:05:45.258Z,10.09
2019-03-27T13:08:15.818Z,10.03
2019-03-27T13:10:46.294Z,9.86
2019-03-27T13:13:18.190Z,9.80
2019-03-27T13:15:48.690Z,9.79
2019-03-27T13:18:19.560Z,9.87
2019-03-27T13:20:50.064Z,10.15
2019-03-27T13:23:21.182Z,10.23
2019-03-27T13:25:51.618Z,10.18
2019-03-27T13:28:22.384Z,10.22
2019-03-27T13:30:53.248Z,10.15
2019-03-27T13:33:23.623Z,9.99
2019-03-27T13:35:54.159Z,9.83
2019-03-27T13:38:24.939Z,9.72
2019-03-27T13:40:55.691Z,9.72
2019-03-27T13:43:26.679Z,9.69
2019-03-27T13:45:57.136Z,9.74
2019-03-27T13:48:27.825Z,9.80
2019-03-27T13:50:58.725Z,10.09
2019-03-27T13:53:29.523Z,10.36
2019-03-27T13:56:00.305Z,10.58
2019-03-27T13:58:31.203Z,10.70
2019-03-27T14:01:01.956Z,10.79
2019-03-27T14:03:32.904Z,10.60
2019-03-27T14:06:04.142Z,9.89
2019-03-27T14:08:36.060Z,9.70
2019-03-27T14:11:07.177Z,9.82
2019-03-27T14:13:43.148Z,9.92
2019-03-27T14:16:12.380Z,9.94
2019-03-27T14:18:43.572Z,9.77
2019-03-27T14:21:14.346Z,9.78
2019-03-27T14:23:44.890Z,9.90
2019-03-27T14:26:15.665Z,10.15
2019-03-27T14:28:47.438Z,10.37
2019-03-27T14:31:18.886Z,10.39
2019-03-27T14:33:49.341Z,10.38
2019-03-27T14:36:20.711Z,10.52
2019-03-27T14:38:51.272Z,10.63
2019-03-27T14:41:21.879Z,10.64
2019-03-27T14:43:52.646Z,10.64
2019-03-27T14:46:24.628Z,10.68
2019-03-27T14:48:55.301Z,10.74
2019-03-27T14:51:27.311Z,10.74
2019-03-27T14:53:58.643Z,10.58
2019-03-27T14:56:29.814Z,10.51
2019-03-27T14:59:01.554Z,10.31
2019-03-27T15:01:35.474Z,10.14
2019-03-27T15:04:05.413Z,10.03
2019-03-27T15:06:36.035Z,9.94
2019-03-27T15:09:08.765Z,9.88
2019-03-27T15:11:39.775Z,9.80
2019-03-27T15:14:10.644Z,9.79
2019-03-27T15:16:41.357Z,9.75
2019-03-27T15:19:12.438Z,9.66
2019-03-27T15:21:43.567Z,9.50
2019-03-27T15:24:15.902Z,9.50
2019-03-27T15:26:46.775Z,9.40
2019-03-27T15:29:18.508Z,9.35
2019-03-27T15:31:50.136Z,9.49
2019-03-27T15:34:21.045Z,9.55
2019-03-27T15:36:52.318Z,9.61
2019-03-27T15:39:22.892Z,9.65
2019-03-27T15:41:53.396Z,9.56
2019-03-27T15:44:24.506Z,9.47
2019-03-27T15:46:58.817Z,9.48
2019-03-27T15:49:29.876Z,9.55
2019-03-27T15:52:01.741Z,9.52
2019-03-27T15:54:32.416Z,9.49
2019-03-27T15:57:03.272Z,9.45
2019-03-27T15:59:33.689Z,9.37
2019-03-27T16:02:07.055Z,9.29
2019-03-27T16:04:38.858Z,9.25
2019-03-27T16:07:09.632Z,9.27
2019-03-27T16:09:40.151Z,9.21
2019-03-27T16:12:10.813Z,9.20
2019-03-27T16:14:41.462Z,9.15
2019-03-27T16:17:13.698Z,9.12
2019-03-27T16:19:44.581Z,9.14
2019-03-27T16:22:15.618Z,9.12
2019-03-27T16:24:46.725Z,9.09
2019-03-27T16:27:17.927Z,9.09
2019-03-27T16:29:48.703Z,9.07
2019-03-27T16:32:19.824Z,8.99
2019-03-27T16:34:50.958Z,8.99
2019-03-27T16:37:21.697Z,8.98
2019-03-27T16:39:53.023Z,8.96
2019-03-27T16:42:23.501Z,8.93
2019-03-27T16:44:55.614Z,8.89
2019-03-27T16:47:26.336Z,8.75
2019-03-27T16:49:57.065Z,8.69
2019-03-27T16:52:27.933Z,8.64
2019-03-27T16:54:59.331Z,8.59
2019-03-27T16:57:30.161Z,8.57
2019-03-27T17:00:00.750Z,8.53
2019-03-27T17:02:32.480Z,8.50
2019-03-27T17:05:04.098Z,8.45
2019-03-27T17:07:34.867Z,8.43
2019-03-27T17:10:07.400Z,8.39
2019-03-27T17:12:39.334Z,8.39
2019-03-27T17:15:11.160Z,8.35
2019-03-27T17:17:42.274Z,8.33
2019-03-27T17:20:13.346Z,8.32
2019-03-27T17:22:44.403Z,8.31
2019-03-27T17:25:15.380Z,8.31
2019-03-27T17:27:46.137Z,8.30
2019-03-27T17:30:17.470Z,8.28
2019-03-27T17:32:49.796Z,8.27
2019-03-27T17:35:21.072Z,8.27
2019-03-27T17:37:51.987Z,8.26
2019-03-27T17:40:23.207Z,8.24
2019-03-27T17:42:54.999Z,8.21
2019-03-27T17:45:25.982Z,8.19
2019-03-27T17:47:57.939Z,8.16
2019-03-27T17:50:29.566Z,8.16
2019-03-27T17:53:00.662Z,8.16
2019-03-27T17:55:31.432Z,8.12
2019-03-27T17:58:02.432Z,8.09
2019-03-27T18:00:42.161Z,8.05
2019-03-27T18:03:13.935Z,8.00
2019-03-27T18:05:45.818Z,7.96
2019-03-27T18:08:16.721Z,7.93
2019-03-27T18:10:49.167Z,7.90
2019-03-27T18:13:20.132Z,7.91
2019-03-27T18:15:50.901Z,7.89
2019-03-27T18:18:23.046Z,7.88
2019-03-27T18:20:53.472Z,7.87
2019-03-27T18:23:24.295Z,7.88
2019-03-27T18:25:55.245Z,7.88
2019-03-27T18:28:26.562Z,7.85
2019-03-27T18:30:57.308Z,7.86
2019-03-27T18:33:28.737Z,7.86
2019-03-27T18:36:01.199Z,7.85
2019-03-27T18:38:33.295Z,7.86
2019-03-27T18:41:06.373Z,7.90
2019-03-27T18:43:37.756Z,7.90
2019-03-27T18:46:08.658Z,7.90
2019-03-27T18:48:39.496Z,7.91
2019-03-27T18:51:10.169Z,7.93
2019-03-27T18:53:41.771Z,7.93
2019-03-27T18:56:13.712Z,7.95
2019-03-27T18:58:44.545Z,7.96
2019-03-27T19:01:15.347Z,7.97
2019-03-27T19:03:48.802Z,7.95
2019-03-27T19:06:19.414Z,7.96
2019-03-27T19:08:51.643Z,7.95
2019-03-27T19:11:22.516Z,7.92
2019-03-27T19:13:58.503Z,7.90
2019-03-27T19:16:29.789Z,7.89
2019-03-27T19:19:00.715Z,7.86
2019-03-27T19:21:31.669Z,7.84
2019-03-27T19:24:13.203Z,7.78
2019-03-27T19:26:34.773Z,7.73
2019-03-27T19:29:05.428Z,7.69
2019-03-27T19:31:36.113Z,7.70
2019-03-27T19:34:09.055Z,7.69
2019-03-27T19:36:39.481Z,7.69
2019-03-27T19:39:10.446Z,7.68
2019-03-27T19:41:41.856Z,7.68
2019-03-27T19:44:13.519Z,7.64
2019-03-27T19:46:44.629Z,7.64
2019-03-27T19:49:15.210Z,7.58
2019-03-27T19:51:47.334Z,7.56
2019-03-27T19:54:27.148Z,7.54
2019-03-27T19:56:53.520Z,7.53
2019-03-27T19:59:27.376Z,7.48
2019-03-27T20:01:58.998Z,7.48
2019-03-27T20:04:29.939Z,7.46
2019-03-27T20:07:01.139Z,7.44
2019-03-27T20:09:31.842Z,7.38
2019-03-27T20:12:02.286Z,7.34
2019-03-27T20:14:33.730Z,7.30
2019-03-27T20:17:07.702Z,7.28
2019-03-27T20:19:38.816Z,7.25
2019-03-27T20:22:10.369Z,7.23
2019-03-27T20:24:41.490Z,7.22
2019-03-27T20:27:13.043Z,7.20
2019-03-27T20:29:46.523Z,7.19
2019-03-27T20:32:19.562Z,7.17
2019-03-27T20:34:52.032Z,7.16
2019-03-27T20:37:24.203Z,7.14
2019-03-27T20:39:55.346Z,7.13
2019-03-27T20:42:26.930Z,7.12
2019-03-27T20:45:00.401Z,7.11
2019-03-27T20:47:32.351Z,7.11
2019-03-27T20:50:03.148Z,7.10
2019-03-27T20:52:34.186Z,7.11
2019-03-27T20:55:07.936Z,7.12
2019-03-27T20:57:38.689Z,7.12
2019-03-27T21:00:09.336Z,7.11
2019-03-27T21:02:40.429Z,7.12
2019-03-27T21:05:12.483Z,7.12
2019-03-27T21:07:44.171Z,7.13
2019-03-27T21:10:14.773Z,7.15
2019-03-27T21:12:47.706Z,7.17
2019-03-27T21:15:19.751Z,7.16
2019-03-27T21:17:50.211Z,7.19
2019-03-27T21:20:21.151Z,7.17
2019-03-27T21:22:51.983Z,7.17
2019-03-27T21:25:22.589Z,7.17
2019-03-27T21:27:53.343Z,7.18
2019-03-27T21:30:23.923Z,7.19
2019-03-27T21:32:54.516Z,7.21
2019-03-27T21:35:25.480Z,7.21
2019-03-27T21:37:56.188Z,7.21
2019-03-27T21:40:26.824Z,7.20
2019-03-27T21:42:57.958Z,7.23
2019-03-27T21:45:28.360Z,7.24
2019-03-27T21:47:58.988Z,7.24
2019-03-27T21:50:31.131Z,7.26
2019-03-27T21:53:01.648Z,7.26
2019-03-27T21:55:42.651Z,7.26
2019-03-27T21:58:07.550Z,7.26
2019-03-27T22:00:39.314Z,7.24
2019-03-27T22:03:09.991Z,7.24
2019-03-27T22:05:40.529Z,7.25
2019-03-27T22:08:11.596Z,7.24
2019-03-27T22:10:42.225Z,7.26
2019-03-27T22:13:12.949Z,7.27
2019-03-27T22:15:45.094Z,7.29
2019-03-27T22:18:15.610Z,7.30
2019-03-27T22:20:46.423Z,7.32
2019-03-27T22:23:17.145Z,7.32
2019-03-27T22:25:47.805Z,7.34
2019-03-27T22:28:18.689Z,7.35
2019-03-27T22:30:49.746Z,7.35
2019-03-27T22:33:25.983Z,7.36
2019-03-27T22:35:56.551Z,7.37
2019-03-27T22:38:28.033Z,7.39
2019-03-27T22:40:59.346Z,7.37
2019-03-27T22:43:30.643Z,7.37
2019-03-27T22:46:01.105Z,7.40
2019-03-27T22:48:31.722Z,7.40
2019-03-27T22:51:02.711Z,7.40
2019-03-27T22:53:34.078Z,7.41
2019-03-27T22:56:06.690Z,7.41
2019-03-27T22:58:37.286Z,7.42
2019-03-27T23:01:08.145Z,7.42
2019-03-27T23:03:40.663Z,7.42
2019-03-27T23:06:11.280Z,7.40
2019-03-27T23:08:42.245Z,7.40
2019-03-27T23:11:12.636Z,7.41
2019-03-27T23:13:44.473Z,7.40
2019-03-27T23:16:15.052Z,7.42
2019-03-27T23:18:45.885Z,7.41
2019-03-27T23:21:16.645Z,7.39
2019-03-27T23:23:47.383Z,7.41
2019-03-27T23:26:17.871Z,7.42
2019-03-27T23:28:48.496Z,7.40
2019-03-27T23:31:19.117Z,7.38
2019-03-27T23:33:49.643Z,7.37
2019-03-27T23:36:20.040Z,7.36
2019-03-27T23:38:50.496Z,7.35
2019-03-27T23:41:21.120Z,7.31
2019-03-27T23:43:52.042Z,7.31
2019-03-27T23:46:22.393Z,7.28
2019-03-27T23:48:53.078Z,7.26
2019-03-27T23:51:23.690Z,7.23
2019-03-27T23:53:54.435Z,7.23
2019-03-27T23:56:24.938Z,7.22
2019-03-27T23:58:55.951Z,7.22
